Time;durP1;ratioP1;P1;durP2;ratioP2;P2;SDS_P1;SDS_P2;PMS_P1;PMS_P2;Temp;Humidity;BMP_temperature;BMP_pressure;BME280_temperature;BME280_humidity;BME280_pressure;Samples;Min_cycle;Max_cycle;Signal;HPM_P1;HPM_P2
2023/05/07 00:01:36;;;;;;;13.43;9.65;;;;;;;;;;4996817;28;20255;-58
2023/05/07 00:04:03;;;;;;;12.05;9.40;;;;;;;;;;4996924;28;20243;-58
2023/05/07 00:06:28;;;;;;;12.68;9.32;;;;;;;;;;4996380;28;20486;-58
2023/05/07 00:08:54;;;;;;;11.50;9.48;;;;;;;;;;4996435;28;20188;-58
2023/05/07 00:11:21;;;;;;;13.30;9.43;;;;;;;;;;4996141;28;20189;-58
2023/05/07 00:13:48;;;;;;;12.63;9.35;;;;;;;;;;4995219;28;20212;-58
2023/05/07 00:16:14;;;;;;;11.70;8.88;;;;;;;;;;4995950;28;20169;-58
2023/05/07 00:18:40;;;;;;;12.43;8.90;;;;;;;;;;4996514;28;20185;-58
2023/05/07 00:21:06;;;;;;;11.80;8.88;;;;;;;;;;4996220;28;20181;-58
2023/05/07 00:23:31;;;;;;;10.43;8.43;;;;;;;;;;4996239;28;20204;-58
2023/05/07 00:25:57;;;;;;;9.73;8.38;;;;;;;;;;4996320;28;20188;-58
2023/05/07 00:28:23;;;;;;;10.82;8.15;;;;;;;;;;4994300;28;20933;-58
2023/05/07 00:30:49;;;;;;;12.30;8.90;;;;;;;;;;4996205;28;20189;-58
2023/05/07 00:33:15;;;;;;;10.48;8.23;;;;;;;;;;4994676;28;20219;-58
2023/05/07 00:35:42;;;;;;;11.82;9.20;;;;;;;;;;4996180;28;20242;-58
2023/05/07 00:38:08;;;;;;;11.38;8.55;;;;;;;;;;4994576;28;20203;-58
2023/05/07 00:40:34;;;;;;;11.13;9.45;;;;;;;;;;4996290;28;20565;-58
2023/05/07 00:43:00;;;;;;;11.23;8.95;;;;;;;;;;4994891;28;20284;-58
2023/05/07 00:45:29;;;;;;;12.32;8.75;;;;;;;;;;4996094;28;20267;-57
2023/05/07 00:47:56;;;;;;;12.07;8.40;;;;;;;;;;4995534;28;20169;-57
2023/05/07 00:50:22;;;;;;;12.45;8.07;;;;;;;;;;4995873;28;20618;-58
2023/05/07 00:52:48;;;;;;;12.48;8.38;;;;;;;;;;4994128;28;20165;-58
2023/05/07 00:55:14;;;;;;;10.45;8.55;;;;;;;;;;4990388;28;20657;-58
2023/05/07 00:57:41;;;;;;;10.30;7.95;;;;;;;;;;4995302;28;20224;-58
2023/05/07 01:00:08;;;;;;;10.88;8.63;;;;;;;;;;4995747;28;20534;-58
2023/05/07 01:02:34;;;;;;;11.85;8.18;;;;;;;;;;4995435;28;20272;-58
2023/05/07 01:05:01;;;;;;;10.07;7.47;;;;;;;;;;4995987;28;20272;-58
2023/05/07 01:07:27;;;;;;;11.98;8.77;;;;;;;;;;4994939;28;20504;-58
2023/05/07 01:09:53;;;;;;;12.30;9.05;;;;;;;;;;4992576;28;20724;-58
2023/05/07 01:12:20;;;;;;;14.43;9.05;;;;;;;;;;4995281;28;20288;-58
2023/05/07 01:14:45;;;;;;;10.32;8.45;;;;;;;;;;4995830;28;20271;-58
2023/05/07 01:17:11;;;;;;;13.35;9.98;;;;;;;;;;4995129;28;20185;-58
2023/05/07 01:19:37;;;;;;;11.85;8.20;;;;;;;;;;4992742;28;20234;-58
2023/05/07 01:22:07;;;;;;;12.57;9.10;;;;;;;;;;4995118;28;20257;-58
2023/05/07 01:24:33;;;;;;;11.95;9.20;;;;;;;;;;4994267;28;20193;-58
2023/05/07 01:27:01;;;;;;;11.82;9.00;;;;;;;;;;4995633;28;20616;-58
2023/05/07 01:29:27;;;;;;;11.13;8.35;;;;;;;;;;4994094;28;20177;-58
2023/05/07 01:31:53;;;;;;;11.43;9.27;;;;;;;;;;4994878;28;20177;-58
2023/05/07 01:34:21;;;;;;;11.20;8.88;;;;;;;;;;4994663;28;20632;-58
2023/05/07 01:36:47;;;;;;;11.13;8.52;;;;;;;;;;4995730;28;20177;-58
2023/05/07 01:39:14;;;;;;;11.30;8.88;;;;;;;;;;4993387;28;20209;-58
2023/05/07 01:41:40;;;;;;;11.43;8.93;;;;;;;;;;4995078;28;20208;-58
2023/05/07 01:44:06;;;;;;;11.63;8.82;;;;;;;;;;4994391;28;20189;-58
2023/05/07 01:46:32;;;;;;;10.75;8.57;;;;;;;;;;4995105;28;20240;-58
2023/05/07 01:48:58;;;;;;;12.02;8.95;;;;;;;;;;4993479;28;20261;-58
2023/05/07 01:51:24;;;;;;;12.73;9.63;;;;;;;;;;4992776;28;20188;-58
2023/05/07 01:53:53;;;;;;;13.45;9.18;;;;;;;;;;4995174;28;20211;-58
2023/05/07 01:56:19;;;;;;;12.10;8.95;;;;;;;;;;4993702;28;20196;-58
2023/05/07 01:58:46;;;;;;;11.20;8.43;;;;;;;;;;4993404;28;20223;-58
2023/05/07 02:01:13;;;;;;;12.05;8.52;;;;;;;;;;4994348;28;20181;-58
2023/05/07 02:03:39;;;;;;;13.30;9.05;;;;;;;;;;4994109;28;20557;-58
2023/05/07 02:06:05;;;;;;;13.93;9.45;;;;;;;;;;4992235;28;20193;-58
2023/05/07 02:08:31;;;;;;;11.63;9.20;;;;;;;;;;4990756;28;20235;-58
2023/05/07 02:10:57;;;;;;;15.80;9.45;;;;;;;;;;4995002;28;20489;-58
2023/05/07 02:13:24;;;;;;;11.63;8.52;;;;;;;;;;4993709;28;20224;-58
2023/05/07 02:15:50;;;;;;;11.35;8.35;;;;;;;;;;4993878;28;20180;-58
2023/05/07 02:18:17;;;;;;;12.63;9.88;;;;;;;;;;4993854;28;20181;-58
2023/05/07 02:20:43;;;;;;;15.18;9.85;;;;;;;;;;4993727;28;20534;-58
2023/05/07 02:23:09;;;;;;;11.60;8.23;;;;;;;;;;4993757;28;20225;-58
2023/05/07 02:25:35;;;;;;;12.25;9.15;;;;;;;;;;4994806;28;20766;-58
2023/05/07 02:28:01;;;;;;;11.07;8.48;;;;;;;;;;4993656;28;20178;-58
2023/05/07 02:30:27;;;;;;;13.32;9.30;;;;;;;;;;4993747;28;20193;-58
2023/05/07 02:32:52;;;;;;;12.63;9.43;;;;;;;;;;4993869;28;20192;-58
2023/05/07 02:35:18;;;;;;;13.32;9.50;;;;;;;;;;4993860;28;20188;-58
2023/05/07 02:37:44;;;;;;;13.75;9.82;;;;;;;;;;4991547;28;20192;-58
2023/05/07 02:40:11;;;;;;;12.55;8.95;;;;;;;;;;5001374;28;20180;-58
2023/05/07 02:42:37;;;;;;;11.82;8.70;;;;;;;;;;4993189;28;20836;-58
2023/05/07 02:45:03;;;;;;;16.40;10.18;;;;;;;;;;4996055;28;20212;-58
2023/05/07 02:47:29;;;;;;;12.68;9.63;;;;;;;;;;4991507;28;20224;-58
2023/05/07 02:49:55;;;;;;;14.13;9.70;;;;;;;;;;4986896;28;20181;-58
2023/05/07 02:52:22;;;;;;;12.82;10.40;;;;;;;;;;4994231;28;20193;-58
2023/05/07 02:54:49;;;;;;;15.15;9.50;;;;;;;;;;4993172;28;20287;-58
2023/05/07 02:57:15;;;;;;;13.85;8.93;;;;;;;;;;4994105;28;20193;-58
2023/05/07 02:59:41;;;;;;;13.20;9.20;;;;;;;;;;4993262;28;20582;-58
2023/05/07 03:02:07;;;;;;;15.60;9.45;;;;;;;;;;4997867;28;20180;-58
2023/05/07 03:04:33;;;;;;;12.85;9.55;;;;;;;;;;4996609;28;20211;-58
2023/05/07 03:06:59;;;;;;;12.90;9.05;;;;;;;;;;4997126;28;20205;-58
2023/05/07 03:09:25;;;;;;;11.25;8.82;;;;;;;;;;4996801;28;20268;-59
2023/05/07 03:11:51;;;;;;;12.30;8.63;;;;;;;;;;4998326;28;20188;-58
2023/05/07 03:14:17;;;;;;;13.40;8.85;;;;;;;;;;4997371;28;20217;-58
2023/05/07 03:16:43;;;;;;;12.80;9.60;;;;;;;;;;4997984;28;20244;-58
2023/05/07 03:19:09;;;;;;;13.00;9.32;;;;;;;;;;4994662;28;20499;-58
2023/05/07 03:21:35;;;;;;;13.75;9.18;;;;;;;;;;4997674;28;20185;-59
2023/05/07 03:24:01;;;;;;;13.38;9.13;;;;;;;;;;4997145;28;20180;-58
2023/05/07 03:26:27;;;;;;;11.70;8.63;;;;;;;;;;4980243;28;20596;-58
2023/05/07 03:28:53;;;;;;;13.02;8.30;;;;;;;;;;4996590;28;20219;-58
2023/05/07 03:31:19;;;;;;;12.45;8.68;;;;;;;;;;4995734;28;20213;-58
2023/05/07 03:33:55;;;;;;;11.60;8.63;;;;;;;;;;4997292;28;20218;-58
2023/05/07 03:36:21;;;;;;;13.25;9.15;;;;;;;;;;4997409;28;20177;-58
2023/05/07 03:38:47;;;;;;;13.52;8.55;;;;;;;;;;4994842;28;20436;-58
2023/05/07 03:41:13;;;;;;;12.80;8.75;;;;;;;;;;4997241;28;20569;-58
2023/05/07 03:43:39;;;;;;;10.98;8.25;;;;;;;;;;4996760;28;20232;-58
2023/05/07 03:46:05;;;;;;;11.68;8.50;;;;;;;;;;4996601;28;20509;-58
2023/05/07 03:48:31;;;;;;;10.32;8.13;;;;;;;;;;4996433;28;20348;-58
2023/05/07 03:51:00;;;;;;;14.18;8.32;;;;;;;;;;4996675;28;20178;-58
2023/05/07 03:53:26;;;;;;;10.45;8.02;;;;;;;;;;4996389;28;20472;-58
2023/05/07 03:55:51;;;;;;;10.27;7.85;;;;;;;;;;4995300;28;20204;-58
2023/05/07 03:58:17;;;;;;;10.98;8.30;;;;;;;;;;4996232;28;20173;-58
2023/05/07 04:00:43;;;;;;;10.98;7.72;;;;;;;;;;4995728;28;20204;-58
2023/05/07 04:03:09;;;;;;;10.98;8.18;;;;;;;;;;4996626;28;20241;-58
2023/05/07 04:05:35;;;;;;;11.60;8.05;;;;;;;;;;4996755;28;20580;-58
2023/05/07 04:08:02;;;;;;;9.82;7.55;;;;;;;;;;4995605;28;20177;-58
2023/05/07 04:10:28;;;;;;;10.90;7.95;;;;;;;;;;4996864;28;20177;-58
2023/05/07 04:12:54;;;;;;;9.60;7.53;;;;;;;;;;4994754;28;20207;-58
2023/05/07 04:15:20;;;;;;;12.45;8.02;;;;;;;;;;4996495;28;20217;-58
2023/05/07 04:17:46;;;;;;;11.75;8.23;;;;;;;;;;4995946;28;20181;-58
2023/05/07 04:20:15;;;;;;;11.93;7.88;;;;;;;;;;4995542;28;20191;-58
2023/05/07 04:22:41;;;;;;;13.43;7.95;;;;;;;;;;4996149;28;20713;-58
2023/05/07 04:25:08;;;;;;;12.23;7.28;;;;;;;;;;4996705;28;20264;-58
2023/05/07 04:27:34;;;;;;;10.13;7.35;;;;;;;;;;4994968;28;20244;-58
2023/05/07 04:30:00;;;;;;;10.48;8.05;;;;;;;;;;4995690;28;20181;-58
2023/05/07 04:32:28;;;;;;;12.40;8.05;;;;;;;;;;4995887;28;20184;-58
2023/05/07 04:34:55;;;;;;;11.02;7.82;;;;;;;;;;4995535;28;20476;-50
2023/05/07 04:37:21;;;;;;;11.80;8.05;;;;;;;;;;4995821;28;20244;-49
2023/05/07 04:39:47;;;;;;;10.15;6.70;;;;;;;;;;4995168;28;20237;-53
2023/05/07 04:42:18;;;;;;;17.30;7.65;;;;;;;;;;4995024;28;20563;-50
2023/05/07 04:44:45;;;;;;;15.00;7.75;;;;;;;;;;4996278;28;20453;-42
2023/05/07 04:47:11;;;;;;;11.30;7.50;;;;;;;;;;4995606;28;20181;-45
2023/05/07 04:49:37;;;;;;;11.73;6.50;;;;;;;;;;4994590;28;20561;-47
2023/05/07 04:52:03;;;;;;;17.20;7.28;;;;;;;;;;4995003;28;20196;-54
2023/05/07 04:54:29;;;;;;;11.00;7.18;;;;;;;;;;4994417;28;20205;-46
2023/05/07 04:56:55;;;;;;;9.50;6.65;;;;;;;;;;4994172;28;20195;-48
2023/05/07 04:59:21;;;;;;;10.32;6.43;;;;;;;;;;4995609;28;20185;-52
2023/05/07 05:01:47;;;;;;;17.83;7.68;;;;;;;;;;4995631;28;20233;-49
2023/05/07 05:04:13;;;;;;;25.10;9.70;;;;;;;;;;4995810;28;20213;-49
2023/05/07 05:06:39;;;;;;;20.40;8.57;;;;;;;;;;4994397;28;20225;-48
2023/05/07 05:09:05;;;;;;;23.98;8.88;;;;;;;;;;4994204;28;21629;-48
2023/05/07 05:11:31;;;;;;;19.85;8.23;;;;;;;;;;4995160;28;20260;-47
2023/05/07 05:13:57;;;;;;;15.25;7.40;;;;;;;;;;4995783;28;20402;-47
2023/05/07 05:16:23;;;;;;;15.57;7.43;;;;;;;;;;4994896;28;20597;-49
2023/05/07 05:18:51;;;;;;;9.40;6.55;;;;;;;;;;4993147;28;20188;-43
2023/05/07 05:21:17;;;;;;;11.73;7.20;;;;;;;;;;4994423;28;20188;-47
2023/05/07 05:23:43;;;;;;;9.93;6.90;;;;;;;;;;4994983;28;20189;-44
2023/05/07 05:26:09;;;;;;;12.77;6.97;;;;;;;;;;4994266;28;20184;-43
2023/05/07 05:28:35;;;;;;;15.95;6.80;;;;;;;;;;4993093;28;20437;-44
2023/05/07 05:31:01;;;;;;;8.75;6.50;;;;;;;;;;4988173;28;20260;-40
2023/05/07 05:33:27;;;;;;;10.95;6.05;;;;;;;;;;4989220;28;20212;-40
2023/05/07 05:35:54;;;;;;;13.90;7.38;;;;;;;;;;4994743;28;20189;-40
2023/05/07 05:38:20;;;;;;;11.82;6.43;;;;;;;;;;4993996;28;20184;-40
2023/05/07 05:40:46;;;;;;;10.52;6.28;;;;;;;;;;4993976;28;20177;-40
2023/05/07 05:43:12;;;;;;;12.85;5.85;;;;;;;;;;4994688;28;20196;-40
2023/05/07 05:45:38;;;;;;;9.50;6.45;;;;;;;;;;4995224;28;20192;-40
2023/05/07 05:48:04;;;;;;;11.85;6.05;;;;;;;;;;4994221;28;20268;-40
2023/05/07 05:50:30;;;;;;;9.15;5.53;;;;;;;;;;4994039;28;20196;-40
2023/05/07 05:52:56;;;;;;;12.55;7.60;;;;;;;;;;4994723;28;20181;-40
2023/05/07 05:55:22;;;;;;;13.10;7.22;;;;;;;;;;4994196;28;20299;-40
2023/05/07 05:57:48;;;;;;;11.77;6.85;;;;;;;;;;4994343;28;20264;-40
2023/05/07 06:00:14;;;;;;;12.68;6.40;;;;;;;;;;4994639;28;20272;-40
2023/05/07 06:02:40;;;;;;;10.45;5.32;;;;;;;;;;4994633;28;20296;-43
2023/05/07 06:05:06;;;;;;;9.10;6.10;;;;;;;;;;4994369;28;20608;-44
2023/05/07 06:07:32;;;;;;;14.05;6.63;;;;;;;;;;4994244;28;20188;-43
2023/05/07 06:09:58;;;;;;;7.85;5.20;;;;;;;;;;4994353;28;20204;-42
2023/05/07 06:12:24;;;;;;;8.57;5.18;;;;;;;;;;4994084;28;20225;-42
2023/05/07 06:14:50;;;;;;;9.52;6.57;;;;;;;;;;4994189;28;20212;-42
2023/05/07 06:17:16;;;;;;;8.95;6.13;;;;;;;;;;4994766;28;20177;-42
2023/05/07 06:19:42;;;;;;;12.02;6.78;;;;;;;;;;4992556;28;20917;-42
2023/05/07 06:22:08;;;;;;;8.13;6.13;;;;;;;;;;4993560;28;20206;-42
2023/05/07 06:24:34;;;;;;;12.07;6.30;;;;;;;;;;4994352;28;20203;-43
2023/05/07 06:27:00;;;;;;;8.40;4.82;;;;;;;;;;4994116;28;20600;-42
2023/05/07 06:29:26;;;;;;;8.02;6.00;;;;;;;;;;4993310;28;20200;-42
2023/05/07 06:31:55;;;;;;;10.70;5.20;;;;;;;;;;4993564;28;20451;-42
2023/05/07 06:34:20;;;;;;;7.70;6.28;;;;;;;;;;4992814;28;20291;-42
2023/05/07 06:36:46;;;;;;;8.05;5.93;;;;;;;;;;4996003;28;20284;-42
2023/05/07 06:39:12;;;;;;;11.57;6.95;;;;;;;;;;4997713;28;20573;-42
2023/05/07 06:41:38;;;;;;;7.47;5.35;;;;;;;;;;4998141;28;20181;-42
2023/05/07 06:44:05;;;;;;;10.25;6.00;;;;;;;;;;4997677;28;20216;-43
2023/05/07 06:46:31;;;;;;;8.95;6.40;;;;;;;;;;4998267;28;20185;-42
2023/05/07 06:48:57;;;;;;;7.68;5.57;;;;;;;;;;4996715;28;20204;-42
2023/05/07 06:51:23;;;;;;;7.65;6.18;;;;;;;;;;4997721;28;20189;-42
2023/05/07 06:53:49;;;;;;;9.05;6.22;;;;;;;;;;4997354;28;20224;-42
2023/05/07 06:56:15;;;;;;;8.00;6.53;;;;;;;;;;4997146;28;20204;-42
2023/05/07 06:58:41;;;;;;;7.88;5.93;;;;;;;;;;4997906;28;20219;-42
2023/05/07 07:01:06;;;;;;;12.88;7.07;;;;;;;;;;4996396;28;20173;-42
2023/05/07 07:03:32;;;;;;;10.30;6.90;;;;;;;;;;4997933;28;20643;-42
2023/05/07 07:05:59;;;;;;;8.55;6.60;;;;;;;;;;4996331;28;20220;-42
2023/05/07 07:08:25;;;;;;;7.93;6.22;;;;;;;;;;4996280;28;20287;-42
2023/05/07 07:10:51;;;;;;;11.63;6.57;;;;;;;;;;4983828;28;20585;-43
2023/05/07 07:13:16;;;;;;;6.95;5.82;;;;;;;;;;4998070;28;20185;-42
2023/05/07 07:15:43;;;;;;;8.35;6.65;;;;;;;;;;4995733;28;20256;-43
2023/05/07 07:18:09;;;;;;;7.38;6.22;;;;;;;;;;4995572;28;20189;-43
2023/05/07 07:20:35;;;;;;;7.18;5.75;;;;;;;;;;4995574;28;20185;-42
2023/05/07 07:23:01;;;;;;;9.55;6.65;;;;;;;;;;4997421;28;20191;-42
2023/05/07 07:25:27;;;;;;;10.82;5.85;;;;;;;;;;4997858;28;20189;-42
2023/05/07 07:27:53;;;;;;;10.20;5.82;;;;;;;;;;4993930;28;20461;-42
2023/05/07 07:30:19;;;;;;;8.63;5.80;;;;;;;;;;4995999;28;20185;-42
2023/05/07 07:32:45;;;;;;;8.00;6.10;;;;;;;;;;4995931;28;20178;-42
2023/05/07 07:35:11;;;;;;;10.88;6.85;;;;;;;;;;4997142;28;20213;-42
2023/05/07 07:37:36;;;;;;;8.15;6.28;;;;;;;;;;4996274;28;20185;-42
2023/05/07 07:40:03;;;;;;;7.82;5.60;;;;;;;;;;4997366;28;20185;-43
2023/05/07 07:42:29;;;;;;;8.25;5.78;;;;;;;;;;4996273;28;20169;-42
2023/05/07 07:44:56;;;;;;;6.80;5.72;;;;;;;;;;4997040;28;20682;-42
2023/05/07 07:47:22;;;;;;;9.05;6.78;;;;;;;;;;4994344;28;20189;-42
2023/05/07 07:49:48;;;;;;;8.90;5.78;;;;;;;;;;4996162;28;20203;-42
2023/05/07 07:52:14;;;;;;;10.70;6.80;;;;;;;;;;4996745;28;20222;-42
2023/05/07 07:54:40;;;;;;;9.55;5.60;;;;;;;;;;4997540;28;20228;-43
2023/05/07 07:57:06;;;;;;;6.07;5.30;;;;;;;;;;4995171;28;20225;-42
2023/05/07 07:59:32;;;;;;;8.88;5.95;;;;;;;;;;4996520;28;20189;-42
2023/05/07 08:01:58;;;;;;;7.72;5.60;;;;;;;;;;4995897;28;20191;-42
2023/05/07 08:04:24;;;;;;;5.78;4.90;;;;;;;;;;4996247;28;20197;-42
2023/05/07 08:06:50;;;;;;;7.88;5.88;;;;;;;;;;4996914;28;20264;-42
2023/05/07 08:09:16;;;;;;;7.13;5.70;;;;;;;;;;4995177;28;20319;-42
2023/05/07 08:11:41;;;;;;;8.25;6.25;;;;;;;;;;4996415;28;20188;-42
2023/05/07 08:14:07;;;;;;;7.75;5.63;;;;;;;;;;4996178;28;20213;-42
2023/05/07 08:16:33;;;;;;;7.22;5.07;;;;;;;;;;4997259;28;20235;-42
2023/05/07 08:18:59;;;;;;;7.93;6.05;;;;;;;;;;4995742;28;20257;-42
2023/05/07 08:21:26;;;;;;;6.05;4.72;;;;;;;;;;4996485;28;20192;-42
2023/05/07 08:23:51;;;;;;;7.07;5.38;;;;;;;;;;4996523;28;20200;-42
2023/05/07 08:26:17;;;;;;;7.60;5.78;;;;;;;;;;4997758;28;20193;-42
2023/05/07 08:28:43;;;;;;;7.38;5.78;;;;;;;;;;4995946;28;20332;-42
2023/05/07 08:31:09;;;;;;;6.68;4.75;;;;;;;;;;4995269;28;20185;-42
2023/05/07 08:33:35;;;;;;;6.75;5.18;;;;;;;;;;4995740;28;20213;-42
2023/05/07 08:36:01;;;;;;;6.68;5.28;;;;;;;;;;4996109;28;20207;-42
2023/05/07 08:38:27;;;;;;;8.00;5.28;;;;;;;;;;4995560;28;20201;-42
2023/05/07 08:40:53;;;;;;;6.68;5.28;;;;;;;;;;4995635;28;20193;-42
2023/05/07 08:43:20;;;;;;;6.47;5.05;;;;;;;;;;4996370;28;20177;-42
2023/05/07 08:45:46;;;;;;;6.07;5.35;;;;;;;;;;4995224;28;20185;-42
2023/05/07 08:48:15;;;;;;;7.07;4.57;;;;;;;;;;4995853;28;20583;-42
2023/05/07 08:50:41;;;;;;;5.63;4.75;;;;;;;;;;4995498;28;20220;-42
2023/05/07 08:53:07;;;;;;;5.00;4.40;;;;;;;;;;4994653;28;20500;-42
2023/05/07 08:55:33;;;;;;;6.70;4.95;;;;;;;;;;4995255;28;20192;-42
2023/05/07 08:58:01;;;;;;;6.00;4.45;;;;;;;;;;4994762;28;20185;-42
2023/05/07 09:00:27;;;;;;;5.15;4.63;;;;;;;;;;4995789;28;20169;-42
2023/05/07 09:02:53;;;;;;;5.40;4.63;;;;;;;;;;4995407;28;20192;-42
2023/05/07 09:05:19;;;;;;;5.68;4.20;;;;;;;;;;4996026;28;20205;-42
2023/05/07 09:07:46;;;;;;;6.43;4.93;;;;;;;;;;4994461;28;20196;-42
2023/05/07 09:10:12;;;;;;;6.70;4.53;;;;;;;;;;4994517;28;20193;-42
2023/05/07 09:12:39;;;;;;;7.70;4.82;;;;;;;;;;4994935;28;20181;-43
2023/05/07 09:15:05;;;;;;;5.57;4.97;;;;;;;;;;4996046;28;20580;-42
2023/05/07 09:17:31;;;;;;;5.82;4.28;;;;;;;;;;4994956;28;20216;-42
2023/05/07 09:19:57;;;;;;;5.40;4.30;;;;;;;;;;4993449;28;20213;-42
2023/05/07 09:22:23;;;;;;;5.13;4.47;;;;;;;;;;4994308;28;20190;-42
2023/05/07 09:24:49;;;;;;;4.93;4.20;;;;;;;;;;4995646;28;20193;-42
2023/05/07 09:27:15;;;;;;;5.38;4.68;;;;;;;;;;4993204;28;20212;-42
2023/05/07 09:29:41;;;;;;;5.50;3.97;;;;;;;;;;4991850;28;20193;-42
2023/05/07 09:32:08;;;;;;;4.57;4.10;;;;;;;;;;4995811;28;20187;-42
2023/05/07 09:34:35;;;;;;;5.53;4.55;;;;;;;;;;4993741;28;20217;-42
2023/05/07 09:37:04;;;;;;;9.93;4.80;;;;;;;;;;4995785;28;20177;-42
2023/05/07 09:40:00;;;;;;;8.55;4.28;;;;;;;;;;4993427;28;20204;-42
2023/05/07 09:42:29;;;;;;;8.82;4.95;;;;;;;;;;4971721;28;20181;-42
2023/05/07 09:44:55;;;;;;;7.88;4.95;;;;;;;;;;4994653;28;20235;-42
2023/05/07 09:47:24;;;;;;;8.30;4.50;;;;;;;;;;4995534;28;20466;-42
2023/05/07 09:49:50;;;;;;;5.88;4.47;;;;;;;;;;4993997;28;20196;-42
2023/05/07 09:52:16;;;;;;;9.35;4.85;;;;;;;;;;4994704;28;20204;-42
2023/05/07 09:54:43;;;;;;;7.22;4.93;;;;;;;;;;4993573;28;20608;-42
2023/05/07 09:57:11;;;;;;;6.47;4.63;;;;;;;;;;4993320;28;20588;-42
2023/05/07 09:59:38;;;;;;;4.95;4.07;;;;;;;;;;4994042;28;20203;-42
2023/05/07 10:02:05;;;;;;;6.93;4.05;;;;;;;;;;4994765;28;20177;-42
2023/05/07 10:04:32;;;;;;;7.63;4.55;;;;;;;;;;4993165;28;20199;-42
2023/05/07 10:06:59;;;;;;;8.57;4.38;;;;;;;;;;4994990;28;20189;-42
2023/05/07 10:09:26;;;;;;;4.65;4.00;;;;;;;;;;4993258;28;20191;-42
2023/05/07 10:11:52;;;;;;;6.97;4.13;;;;;;;;;;4993791;28;20192;-42
2023/05/07 10:14:21;;;;;;;5.47;3.97;;;;;;;;;;4994139;28;20204;-42
2023/05/07 10:16:48;;;;;;;5.75;4.00;;;;;;;;;;4995244;28;20181;-42
2023/05/07 10:19:14;;;;;;;7.43;3.85;;;;;;;;;;4993021;28;20243;-42
2023/05/07 10:21:56;;;;;;;7.18;4.07;;;;;;;;;;4994451;28;20185;-42
2023/05/07 10:24:25;;;;;;;6.68;4.10;;;;;;;;;;4987142;28;20486;-42
2023/05/07 10:26:53;;;;;;;6.18;4.00;;;;;;;;;;4994798;28;20268;-42
2023/05/07 10:29:25;;;;;;;5.95;4.22;;;;;;;;;;4994169;28;20275;-42
2023/05/07 10:32:06;;;;;;;7.10;3.92;;;;;;;;;;4991774;28;20197;-42
2023/05/07 10:34:38;;;;;;;6.25;4.82;;;;;;;;;;4993520;28;20496;-42
2023/05/07 10:37:04;;;;;;;8.60;5.45;;;;;;;;;;4994111;28;20605;-42
2023/05/07 10:39:30;;;;;;;9.35;5.80;;;;;;;;;;4993430;28;20191;-42
2023/05/07 10:41:56;;;;;;;11.20;5.63;;;;;;;;;;4993993;28;20185;-42
2023/05/07 10:44:27;;;;;;;11.00;5.90;;;;;;;;;;4993650;28;20185;-42
2023/05/07 10:47:06;;;;;;;18.02;6.68;;;;;;;;;;4994371;28;20193;-42
2023/05/07 10:49:32;;;;;;;16.58;7.80;;;;;;;;;;4993700;28;20318;-42
2023/05/07 10:52:12;;;;;;;23.10;7.85;;;;;;;;;;4993349;28;20296;-42
2023/05/07 10:54:38;;;;;;;18.55;7.90;;;;;;;;;;4992883;28;20529;-42
2023/05/07 10:57:23;;;;;;;17.58;6.75;;;;;;;;;;4993461;28;20486;-42
2023/05/07 10:59:49;;;;;;;16.45;6.45;;;;;;;;;;4993500;28;20200;-42
2023/05/07 11:02:15;;;;;;;17.45;6.20;;;;;;;;;;4994416;28;20177;-42
2023/05/07 11:04:44;;;;;;;11.30;6.30;;;;;;;;;;4992549;28;20177;-42
2023/05/07 11:07:27;;;;;;;13.93;6.30;;;;;;;;;;4986902;28;21296;-42
2023/05/07 11:09:54;;;;;;;14.85;6.07;;;;;;;;;;4989660;28;20193;-42
2023/05/07 11:12:39;;;;;;;8.43;5.47;;;;;;;;;;4993689;28;20191;-42
2023/05/07 11:15:06;;;;;;;10.48;5.38;;;;;;;;;;4991913;28;20205;-42
2023/05/07 11:17:34;;;;;;;11.10;6.10;;;;;;;;;;4993282;28;20351;-42
2023/05/07 11:20:01;;;;;;;21.02;7.45;;;;;;;;;;4992374;28;20185;-42
2023/05/07 11:22:35;;;;;;;30.33;8.93;;;;;;;;;;4996210;28;20464;-42
2023/05/07 11:25:01;;;;;;;16.95;6.70;;;;;;;;;;4997929;28;20312;-42
2023/05/07 11:27:28;;;;;;;18.73;7.65;;;;;;;;;;4997894;28;20196;-42
2023/05/07 11:29:53;;;;;;;15.27;6.78;;;;;;;;;;4996906;28;20276;-42
2023/05/07 11:32:23;;;;;;;12.38;5.05;;;;;;;;;;4995562;28;20217;-42
2023/05/07 11:34:52;;;;;;;11.43;5.57;;;;;;;;;;4995197;28;21789;-42
2023/05/07 11:37:18;;;;;;;9.52;5.32;;;;;;;;;;4997898;28;20173;-42
2023/05/07 11:39:44;;;;;;;12.32;5.25;;;;;;;;;;4994238;28;20178;-42
2023/05/07 11:42:29;;;;;;;9.05;4.40;;;;;;;;;;4997547;28;20287;-42
2023/05/07 11:44:55;;;;;;;5.75;3.92;;;;;;;;;;4995974;28;20227;-42
2023/05/07 11:47:21;;;;;;;10.50;4.45;;;;;;;;;;4995600;28;20213;-42
2023/05/07 11:49:48;;;;;;;8.07;3.95;;;;;;;;;;4996731;28;20258;-42
2023/05/07 11:52:14;;;;;;;8.90;4.43;;;;;;;;;;4996060;28;20239;-42
2023/05/07 11:54:40;;;;;;;5.90;4.07;;;;;;;;;;4996540;28;20209;-42
2023/05/07 11:57:07;;;;;;;12.88;4.18;;;;;;;;;;4996023;28;20212;-42
2023/05/07 11:59:40;;;;;;;6.45;3.67;;;;;;;;;;4995388;28;20463;-42
2023/05/07 12:02:06;;;;;;;7.70;3.85;;;;;;;;;;4995792;28;20170;-42
2023/05/07 12:04:32;;;;;;;4.45;3.55;;;;;;;;;;4996795;28;20193;-42
2023/05/07 12:06:58;;;;;;;5.75;3.83;;;;;;;;;;4996011;28;20315;-42
2023/05/07 12:09:24;;;;;;;4.72;3.33;;;;;;;;;;4995624;28;20208;-42
2023/05/07 12:11:52;;;;;;;6.40;3.83;;;;;;;;;;4996977;28;20208;-42
2023/05/07 12:14:18;;;;;;;6.25;3.70;;;;;;;;;;4995263;28;20472;-42
2023/05/07 12:16:44;;;;;;;5.05;4.13;;;;;;;;;;4993694;28;20192;-42
2023/05/07 12:19:12;;;;;;;5.78;3.53;;;;;;;;;;4995188;28;20185;-42
2023/05/07 12:21:39;;;;;;;5.10;3.70;;;;;;;;;;4995535;28;20232;-42
2023/05/07 12:24:05;;;;;;;5.65;4.40;;;;;;;;;;4995060;28;20189;-42
2023/05/07 12:26:31;;;;;;;3.90;3.20;;;;;;;;;;4996664;28;20193;-42
2023/05/07 12:28:58;;;;;;;5.00;4.03;;;;;;;;;;4995461;28;20200;-42
2023/05/07 12:31:26;;;;;;;7.63;3.85;;;;;;;;;;4994339;28;20814;-42
2023/05/07 12:33:52;;;;;;;6.13;3.38;;;;;;;;;;4978911;28;20696;-42
2023/05/07 12:36:17;;;;;;;4.63;3.22;;;;;;;;;;4995967;28;20263;-42
2023/05/07 12:38:43;;;;;;;4.45;3.17;;;;;;;;;;4994810;28;20228;-42
2023/05/07 12:41:10;;;;;;;4.63;3.20;;;;;;;;;;4996066;28;20213;-42
2023/05/07 12:43:36;;;;;;;3.45;3.15;;;;;;;;;;4995255;28;20188;-42
2023/05/07 12:46:04;;;;;;;3.20;2.90;;;;;;;;;;4993516;28;20561;-42
2023/05/07 12:48:30;;;;;;;3.70;3.40;;;;;;;;;;4978531;28;20193;-42
2023/05/07 12:50:57;;;;;;;3.90;2.75;;;;;;;;;;4995306;28;20558;-42
2023/05/07 12:53:25;;;;;;;3.85;3.17;;;;;;;;;;4994269;28;20190;-42
2023/05/07 12:55:52;;;;;;;4.07;3.22;;;;;;;;;;4993906;28;20227;-42
2023/05/07 12:58:19;;;;;;;3.95;3.53;;;;;;;;;;4994596;28;20239;-42
2023/05/07 13:00:45;;;;;;;3.25;2.80;;;;;;;;;;4995477;28;20228;-42
2023/05/07 13:03:12;;;;;;;2.97;2.67;;;;;;;;;;4993714;28;20572;-42
2023/05/07 13:05:38;;;;;;;5.22;3.20;;;;;;;;;;4996115;28;20268;-42
2023/05/07 13:08:05;;;;;;;3.55;2.53;;;;;;;;;;4994605;28;20185;-42
2023/05/07 13:10:32;;;;;;;4.22;2.92;;;;;;;;;;4994503;28;20185;-42
2023/05/07 13:12:58;;;;;;;3.85;3.20;;;;;;;;;;4996219;28;20177;-42
2023/05/07 13:15:24;;;;;;;3.45;2.78;;;;;;;;;;4995135;28;20775;-42
2023/05/07 13:17:50;;;;;;;4.68;3.40;;;;;;;;;;4994162;28;20187;-42
2023/05/07 13:20:16;;;;;;;3.92;3.20;;;;;;;;;;4994486;28;20177;-42
2023/05/07 13:22:42;;;;;;;3.55;2.47;;;;;;;;;;4994786;28;20192;-42
2023/05/07 13:25:08;;;;;;;3.22;2.80;;;;;;;;;;4995319;28;20188;-42
2023/05/07 13:27:37;;;;;;;3.25;2.90;;;;;;;;;;4995592;28;20267;-42
2023/05/07 13:30:07;;;;;;;3.72;3.30;;;;;;;;;;4995271;28;20588;-42
2023/05/07 13:32:33;;;;;;;3.13;2.83;;;;;;;;;;4993895;28;20192;-42
2023/05/07 13:34:59;;;;;;;3.15;2.90;;;;;;;;;;4996001;28;20205;-42
2023/05/07 13:37:25;;;;;;;4.22;2.90;;;;;;;;;;4994814;28;20185;-42
2023/05/07 13:39:50;;;;;;;2.78;2.47;;;;;;;;;;4993720;28;20177;-43
2023/05/07 13:42:16;;;;;;;2.95;2.65;;;;;;;;;;4993967;28;20549;-42
2023/05/07 13:44:43;;;;;;;3.40;3.10;;;;;;;;;;4993788;28;20214;-42
2023/05/07 13:47:09;;;;;;;4.40;2.88;;;;;;;;;;4994121;28;20188;-42
2023/05/07 13:49:35;;;;;;;2.95;2.65;;;;;;;;;;4994505;28;20197;-42
2023/05/07 13:52:01;;;;;;;2.70;2.50;;;;;;;;;;4994322;28;20475;-43
2023/05/07 13:54:27;;;;;;;3.55;3.03;;;;;;;;;;4995282;28;20528;-42
2023/05/07 13:56:53;;;;;;;3.15;2.85;;;;;;;;;;4993590;28;20215;-42
2023/05/07 13:59:19;;;;;;;3.65;2.83;;;;;;;;;;4994267;28;20185;-42
2023/05/07 14:01:45;;;;;;;3.40;3.10;;;;;;;;;;4993601;28;20231;-42
2023/05/07 14:04:11;;;;;;;3.22;2.90;;;;;;;;;;4994683;28;20220;-42
2023/05/07 14:06:37;;;;;;;3.17;2.78;;;;;;;;;;4994143;28;20616;-42
2023/05/07 14:09:03;;;;;;;3.75;3.30;;;;;;;;;;4992970;28;20619;-42
2023/05/07 14:11:29;;;;;;;3.33;2.70;;;;;;;;;;4993986;28;20196;-42
2023/05/07 14:13:56;;;;;;;4.22;3.10;;;;;;;;;;4994014;28;20477;-42
2023/05/07 14:16:22;;;;;;;4.65;2.90;;;;;;;;;;4991477;28;20191;-43
2023/05/07 14:18:48;;;;;;;2.90;2.60;;;;;;;;;;4994243;28;20185;-42
2023/05/07 14:21:14;;;;;;;4.25;3.03;;;;;;;;;;4993793;28;20181;-42
2023/05/07 14:23:40;;;;;;;2.72;2.40;;;;;;;;;;4995049;28;20193;-42
2023/05/07 14:26:06;;;;;;;3.10;2.80;;;;;;;;;;4993926;28;20279;-43
2023/05/07 14:28:32;;;;;;;3.05;2.72;;;;;;;;;;4993753;28;20185;-42
2023/05/07 14:30:58;;;;;;;3.33;2.60;;;;;;;;;;4993713;28;20212;-42
2023/05/07 14:33:24;;;;;;;3.97;2.50;;;;;;;;;;4994106;28;20185;-42